EHAM/AMS METAR and TAF weather

Enter ICAO airport designator
Station Type Date Time Source
EHAM METAR 2021/09/20 05:55 UTC NOAA

EHAM 200555Z 07005KT CAVOK 11/08 Q1020 NOSIG


Station Type Date Time Source
EHAM Decoded METAR 2021/09/20 05:55 UTC NOAA

Amsterdam Airport Schiphol, Netherlands (EHAM) 52-18N 004-46E -2M
Sep 20, 2021 - 01:55 AM EDT / 2021.09.20 0555 UTC
Wind: from the ENE (070 degrees) at 6 MPH (5 KT):0
Visibility: greater than 7 mile(s):0
Temperature: 51 F (11 C)
Dew Point: 46 F (8 C)
Relative Humidity: 81%
Pressure (altimeter): 30.12 in. Hg (1020 hPa)
ob: EHAM 200555Z 07005KT CAVOK 11/08 Q1020 NOSIG
cycle: 6

Station Type Date Time Source
EHAM TAF 2021/09/20 06:27 UTC NOAA

TAF TAF EHAM 200441Z 2006/2112 09008KT 9999 SCT035
BECMG 2018/2021 VRB02KT
BECMG 2105/2108 24006KT

Example: see airport list